Time;durP1;ratioP1;P1;durP2;ratioP2;P2;SDS_P1;SDS_P2;PMS_P1;PMS_P2;Temp;Humidity;BMP_temperature;BMP_pressure;BME280_temperature;BME280_humidity;BME280_pressure;Samples;Min_cycle;Max_cycle;Signal;HPM_P1;HPM_P2
2022/07/13 00:01:22;;;;;;;10.35;9.00;;;;;;;22.92;64.77;102152.50;6280274;22;20094;-77
2022/07/13 00:03:47;;;;;;;12.25;8.90;;;;;;;22.91;65.49;102152.50;6279065;22;20445;-77
2022/07/13 00:06:13;;;;;;;14.18;9.30;;;;;;;22.85;65.27;102149.88;6277971;22;20011;-76
2022/07/13 00:08:38;;;;;;;12.95;9.07;;;;;;;22.78;64.69;102135.91;6307416;22;20083;-76
2022/07/13 00:11:03;;;;;;;10.63;8.70;;;;;;;22.83;64.95;102142.00;6306497;22;20007;-76
2022/07/13 00:13:29;;;;;;;11.40;8.70;;;;;;;22.81;65.03;102129.75;6306203;22;20009;-76
2022/07/13 00:15:55;;;;;;;10.85;8.77;;;;;;;22.78;64.60;102120.16;6253655;22;20069;-77
2022/07/13 00:18:20;;;;;;;11.95;9.30;;;;;;;22.77;64.46;102128.91;6306249;22;20426;-77
2022/07/13 00:20:46;;;;;;;15.57;9.30;;;;;;;22.80;64.03;102128.88;6279011;22;20007;-77
2022/07/13 00:23:11;;;;;;;11.52;8.70;;;;;;;22.78;64.31;102117.53;6277754;22;20027;-77
2022/07/13 00:25:37;;;;;;;10.93;9.10;;;;;;;22.77;64.22;102112.31;6308285;22;20018;-77
2022/07/13 00:28:03;;;;;;;15.00;9.30;;;;;;;22.77;65.30;102114.94;6306600;22;20019;-77
2022/07/13 00:30:29;;;;;;;10.95;9.00;;;;;;;22.74;64.41;102108.78;6305123;22;20007;-77
2022/07/13 00:32:54;;;;;;;12.05;9.68;;;;;;;22.69;65.01;102113.22;6280163;22;20076;-77
2022/07/13 00:35:20;;;;;;;14.60;8.93;;;;;;;22.66;64.90;102101.84;6278542;22;20011;-77
2022/07/13 00:37:45;;;;;;;13.25;9.27;;;;;;;22.68;64.82;102094.84;6255837;22;20037;-77
2022/07/13 00:40:12;;;;;;;13.70;9.35;;;;;;;22.65;64.53;102098.34;6278064;22;20041;-77
2022/07/13 00:42:37;;;;;;;16.08;9.10;;;;;;;22.62;64.20;102092.22;6278704;22;20000;-77
2022/07/13 00:45:03;;;;;;;15.07;9.60;;;;;;;22.61;64.94;102095.72;6280303;22;20018;-77
2022/07/13 00:47:32;;;;;;;11.13;9.30;;;;;;;22.63;64.38;102093.97;6278865;22;20015;-77
2022/07/13 00:50:00;;;;;;;13.95;9.63;;;;;;;22.56;65.47;102094.88;6305828;22;20007;-77
2022/07/13 00:52:26;;;;;;;13.95;9.82;;;;;;;22.45;65.88;102084.44;6305510;22;19995;-77
2022/07/13 00:54:51;;;;;;;14.13;9.25;;;;;;;22.47;65.67;102067.81;6278775;22;20007;-76
2022/07/13 00:57:17;;;;;;;12.65;9.73;;;;;;;22.52;64.90;102070.44;6276948;22;19991;-77
2022/07/13 00:59:42;;;;;;;12.00;9.70;;;;;;;22.48;65.64;102072.16;6278407;22;20188;-77
2022/07/13 01:02:08;;;;;;;11.38;9.40;;;;;;;22.45;65.39;102073.94;6277130;22;20040;-77
2022/07/13 01:04:33;;;;;;;12.32;9.80;;;;;;;22.41;66.10;102070.44;6250908;22;20102;-78
2022/07/13 01:06:59;;;;;;;14.15;10.30;;;;;;;22.34;66.84;102063.47;6305647;22;20030;-78
2022/07/13 01:09:26;;;;;;;11.07;9.30;;;;;;;22.39;66.20;102063.47;6305983;22;20007;-77
2022/07/13 01:11:52;;;;;;;12.02;9.35;;;;;;;22.38;66.43;102059.94;6306009;22;19995;-77
2022/07/13 01:14:18;;;;;;;16.38;9.70;;;;;;;22.35;65.75;102059.09;6279377;22;20014;-78
2022/07/13 01:16:44;;;;;;;13.35;10.10;;;;;;;22.33;65.56;102053.88;6306203;22;20105;-77
2022/07/13 01:19:14;;;;;;;12.93;9.40;;;;;;;22.35;65.59;102053.84;6306387;22;20367;-77
2022/07/13 01:21:42;;;;;;;11.75;9.07;;;;;;;22.35;65.96;102059.97;6304304;22;20003;-77
2022/07/13 01:24:08;;;;;;;15.02;9.32;;;;;;;22.35;64.77;102065.22;6304670;22;20007;-77
2022/07/13 01:26:34;;;;;;;10.77;9.50;;;;;;;22.34;65.66;102067.84;6279982;22;20074;-77
2022/07/13 01:28:59;;;;;;;11.07;9.02;;;;;;;22.32;65.21;102057.34;6305229;22;20031;-78
2022/07/13 01:31:41;;;;;;;10.88;9.07;;;;;;;22.38;64.80;102064.31;6305874;22;20006;-77
2022/07/13 01:34:08;;;;;;;12.25;9.23;;;;;;;22.31;64.81;102060.84;6278801;22;20019;-77
2022/07/13 01:36:35;;;;;;;14.45;9.38;;;;;;;22.31;66.37;102062.59;6278296;22;20442;-77
2022/07/13 01:39:00;;;;;;;12.77;8.90;;;;;;;22.29;66.29;102057.34;6254512;22;20090;-78
2022/07/13 01:41:31;;;;;;;10.65;8.90;;;;;;;22.32;64.89;102054.72;6278511;22;20409;-78
2022/07/13 01:43:58;;;;;;;10.93;9.32;;;;;;;22.29;64.99;102052.13;6278325;22;20006;-78
2022/07/13 01:46:27;;;;;;;11.55;9.25;;;;;;;22.29;64.63;102038.16;6304312;22;20007;-77
2022/07/13 01:48:57;;;;;;;13.90;8.75;;;;;;;22.26;65.01;102035.50;6279107;22;20466;-77
2022/07/13 01:51:22;;;;;;;13.43;9.68;;;;;;;22.26;65.34;102033.75;6306296;22;19999;-77
2022/07/13 01:53:47;;;;;;;13.48;9.23;;;;;;;22.26;64.78;102040.75;6228845;22;20007;-77
2022/07/13 01:56:13;;;;;;;12.10;8.88;;;;;;;22.27;64.93;102051.25;6276050;22;20081;-77
2022/07/13 01:58:39;;;;;;;12.15;8.73;;;;;;;22.22;65.26;102045.16;6303630;22;20030;-78
2022/07/13 02:01:05;;;;;;;9.18;8.27;;;;;;;22.27;64.71;102053.00;6252915;22;20097;-77
2022/07/13 02:03:32;;;;;;;12.65;8.18;;;;;;;22.24;64.42;102050.38;6304644;22;19999;-77
2022/07/13 02:05:58;;;;;;;10.10;8.00;;;;;;;22.26;64.27;102046.88;6305564;22;20007;-76
2022/07/13 02:08:26;;;;;;;9.25;7.90;;;;;;;22.20;64.76;102037.31;6278722;22;20003;-77
2022/07/13 02:10:52;;;;;;;9.73;7.95;;;;;;;22.16;63.02;102027.69;6303827;22;20011;-77
2022/07/13 02:13:21;;;;;;;10.68;7.88;;;;;;;22.15;63.65;102036.44;6305178;22;20343;-77
2022/07/13 02:15:46;;;;;;;;;;;;;;;22.39;63.28;102030.28;6253629;22;20007;-77
2022/07/13 02:18:12;;;;;;;7.75;6.95;;;;;;;22.18;62.96;102025.06;6304760;22;19903;-77
2022/07/13 02:20:38;;;;;;;10.93;7.15;;;;;;;22.20;63.32;102023.28;6306911;22;20011;-77
2022/07/13 02:23:04;;;;;;;9.25;7.07;;;;;;;22.23;62.76;102028.53;6276121;22;20015;-77
2022/07/13 02:25:31;;;;;;;11.02;6.97;;;;;;;22.18;63.20;102028.53;6306478;22;20049;-77
2022/07/13 02:27:57;;;;;;;7.07;6.38;;;;;;;22.14;63.20;102021.56;6304682;22;20010;-77
2022/07/13 02:30:22;;;;;;;9.70;6.57;;;;;;;22.18;61.59;102019.81;6252772;22;20038;-78
2022/07/13 02:32:47;;;;;;;8.38;6.35;;;;;;;22.20;62.02;102010.19;6278036;22;20011;-77
2022/07/13 02:35:13;;;;;;;7.00;5.70;;;;;;;22.20;61.61;102004.97;6277848;22;20015;-77
2022/07/13 02:37:40;;;;;;;7.82;5.72;;;;;;;22.17;60.68;101998.00;6306583;22;19991;-77
2022/07/13 02:40:07;;;;;;;7.13;5.30;;;;;;;22.16;61.10;101992.75;6278253;22;20003;-77
2022/07/13 02:42:33;;;;;;;6.57;4.72;;;;;;;22.13;60.45;101988.38;6305757;22;20280;-77
2022/07/13 02:44:58;;;;;;;8.10;4.72;;;;;;;22.16;60.00;101992.75;6304665;22;20049;-77
2022/07/13 02:47:24;;;;;;;9.13;4.85;;;;;;;22.17;59.27;101982.28;6303727;22;20041;-77
2022/07/13 02:49:50;;;;;;;6.15;4.22;;;;;;;22.19;59.63;101992.75;6277804;22;20003;-77
2022/07/13 02:52:16;;;;;;;7.45;4.65;;;;;;;22.18;59.29;101991.00;6306763;22;20311;-78
2022/07/13 02:54:42;;;;;;;9.40;4.32;;;;;;;22.18;60.39;101991.00;6305340;22;20008;-77
2022/07/13 02:57:07;;;;;;;6.47;4.07;;;;;;;22.16;59.99;101993.63;6253609;22;20082;-77
2022/07/13 02:59:35;;;;;;;8.48;4.90;;;;;;;22.18;59.60;101996.25;6304505;22;20872;-77
2022/07/13 03:02:00;;;;;;;8.93;4.30;;;;;;;22.14;60.78;101991.88;6277381;22;20007;-77
2022/07/13 03:04:25;;;;;;;5.30;4.40;;;;;;;22.14;59.76;101990.13;6279978;22;20011;-77
2022/07/13 03:06:51;;;;;;;7.03;3.80;;;;;;;22.14;61.56;101995.34;6280927;22;20053;-77
2022/07/13 03:09:17;;;;;;;7.53;3.80;;;;;;;22.14;59.70;101991.88;6307447;22;20007;-76
2022/07/13 03:11:42;;;;;;;4.80;3.65;;;;;;;22.09;60.70;101991.91;6254522;22;20065;-77
2022/07/13 03:14:08;;;;;;;4.72;4.10;;;;;;;22.12;59.70;101994.50;6307351;22;20003;-77
2022/07/13 03:16:34;;;;;;;6.03;4.10;;;;;;;22.13;59.20;101990.13;6280556;22;20018;-77
2022/07/13 03:19:00;;;;;;;7.18;3.92;;;;;;;22.06;60.67;102001.47;6307977;22;20473;-77
2022/07/13 03:21:25;;;;;;;7.47;3.65;;;;;;;22.07;60.22;101997.97;6307871;22;20003;-77
2022/07/13 03:23:51;;;;;;;4.75;3.20;;;;;;;22.09;60.72;101991.91;6283522;22;20007;-77
2022/07/13 03:26:16;;;;;;;7.72;3.55;;;;;;;22.09;61.24;101993.63;6308170;22;20007;-77
2022/07/13 03:28:41;;;;;;;9.38;3.78;;;;;;;22.02;60.71;101978.75;6305637;22;20429;-77
2022/07/13 03:31:07;;;;;;;6.78;3.30;;;;;;;21.99;61.27;101978.78;6278195;22;20013;-77
2022/07/13 03:33:32;;;;;;;4.88;3.40;;;;;;;21.98;61.58;101982.28;6278638;22;20094;-77
2022/07/13 03:35:58;;;;;;;6.55;3.30;;;;;;;21.99;61.86;101978.78;6306078;22;20026;-77
2022/07/13 03:38:25;;;;;;;7.32;3.47;;;;;;;21.97;61.56;101977.94;6279571;22;20035;-77
2022/07/13 03:40:51;;;;;;;4.93;3.50;;;;;;;21.95;61.68;101978.78;6255021;22;20089;-78
2022/07/13 03:43:16;;;;;;;7.57;3.35;;;;;;;22.00;60.54;101970.03;6313617;22;20004;-78
2022/07/13 03:45:42;;;;;;;6.40;3.40;;;;;;;21.97;61.32;101970.06;6253889;22;20090;-78
2022/07/13 03:48:08;;;;;;;5.25;3.28;;;;;;;21.98;60.55;101969.19;6306794;22;20071;-78
2022/07/13 03:50:33;;;;;;;4.47;3.03;;;;;;;21.95;60.18;101973.53;6253166;22;20188;-78
2022/07/13 03:53:01;;;;;;;4.22;3.08;;;;;;;21.97;60.88;101970.06;6305140;22;20082;-78
2022/07/13 03:55:26;;;;;;;4.40;2.85;;;;;;;22.01;59.40;101970.03;6282389;22;20428;-78
2022/07/13 03:57:55;;;;;;;10.15;3.35;;;;;;;22.02;60.45;101974.41;6282217;22;20034;-78
2022/07/13 04:00:21;;;;;;;4.57;3.28;;;;;;;21.98;60.28;101970.06;6281040;22;20385;-78
2022/07/13 04:02:46;;;;;;;5.88;3.00;;;;;;;21.99;59.96;101976.16;6306554;22;19999;-78
2022/07/13 04:05:17;;;;;;;6.00;3.20;;;;;;;22.02;60.54;101979.63;6307144;22;20030;-78
2022/07/13 04:07:50;;;;;;;4.53;3.05;;;;;;;22.04;59.48;101982.28;6279814;22;20003;-79
2022/07/13 04:10:21;;;;;;;5.53;3.60;;;;;;;22.01;59.22;101975.28;6283108;22;20410;-78
2022/07/13 04:12:59;;;;;;;7.05;3.38;;;;;;;22.02;59.30;101971.78;6283027;22;20011;-76
2022/07/13 04:15:24;;;;;;;6.03;3.20;;;;;;;21.99;59.67;101966.56;6307592;22;20007;-77
2022/07/13 04:17:50;;;;;;;7.30;3.53;;;;;;;22.02;59.90;101952.56;6254867;22;20011;-77
2022/07/13 04:20:15;;;;;;;11.55;3.15;;;;;;;21.98;59.74;101949.09;6279482;22;20066;-77
2022/07/13 04:22:41;;;;;;;5.68;3.47;;;;;;;22.00;59.64;101954.34;6252457;22;20430;-77
2022/07/13 04:25:10;;;;;;;4.50;3.28;;;;;;;21.95;60.61;101954.34;6229929;22;20014;-77
2022/07/13 04:27:35;;;;;;;5.15;3.47;;;;;;;21.99;59.95;101947.34;6306910;22;20011;-77
2022/07/13 04:30:02;;;;;;;6.28;3.22;;;;;;;21.91;60.08;101939.53;6278403;22;20088;-77
2022/07/13 04:32:29;;;;;;;4.80;3.22;;;;;;;21.88;59.80;101934.28;6307275;22;20008;-77
2022/07/13 04:34:55;;;;;;;4.22;2.80;;;;;;;21.84;59.61;101922.06;6305582;22;20007;-77
2022/07/13 04:37:23;;;;;;;6.07;2.97;;;;;;;21.95;59.56;101942.09;6253732;22;20045;-77
2022/07/13 04:40:00;;;;;;;4.28;3.00;;;;;;;21.94;59.18;101948.22;6306269;22;20064;-77
2022/07/13 04:42:35;;;;;;;4.00;3.00;;;;;;;21.99;58.85;101956.09;6281795;22;20018;-77
2022/07/13 04:45:01;;;;;;;7.68;3.28;;;;;;;21.86;59.85;101929.06;6255707;22;20033;-77
2022/07/13 04:47:26;;;;;;;4.50;3.28;;;;;;;21.89;59.97;101929.03;6306574;22;20011;-78
2022/07/13 04:49:52;;;;;;;6.20;3.10;;;;;;;21.93;60.14;101933.41;6278927;22;20430;-77
2022/07/13 04:52:17;;;;;;;6.93;3.15;;;;;;;21.92;59.84;101936.03;6307147;22;20485;-78
2022/07/13 04:54:43;;;;;;;5.00;3.08;;;;;;;22.03;59.31;101954.34;6306877;22;20078;-78
2022/07/13 04:57:08;;;;;;;3.80;2.80;;;;;;;22.02;60.30;101944.72;6253287;22;20016;-77
2022/07/13 04:59:33;;;;;;;5.00;3.10;;;;;;;22.05;60.10;101952.59;6280847;22;20029;-77
2022/07/13 05:01:59;;;;;;;6.43;3.20;;;;;;;22.05;60.18;101952.59;6279244;22;20007;-77
2022/07/13 05:04:24;;;;;;;7.15;3.40;;;;;;;22.01;60.81;101946.47;6279798;22;20011;-77
2022/07/13 05:06:50;;;;;;;4.03;2.67;;;;;;;22.07;59.84;101945.59;6306099;22;20003;-77
2022/07/13 05:09:15;;;;;;;5.18;3.10;;;;;;;22.07;59.97;101943.84;6277990;22;20011;-77
2022/07/13 05:11:41;;;;;;;7.10;3.03;;;;;;;22.07;59.79;101940.34;6278875;22;20007;-77
2022/07/13 05:14:06;;;;;;;5.30;2.90;;;;;;;22.07;59.44;101940.34;6278124;22;20323;-77
2022/07/13 05:16:31;;;;;;;6.43;2.90;;;;;;;22.09;59.35;101934.28;6280163;22;20015;-77
2022/07/13 05:18:57;;;;;;;5.13;3.20;;;;;;;22.12;60.06;101942.13;6305389;22;20013;-78
2022/07/13 05:21:23;;;;;;;5.65;3.20;;;;;;;22.10;61.17;101935.16;6308006;22;20007;-78
2022/07/13 05:23:48;;;;;;;9.80;3.08;;;;;;;22.11;60.39;101937.75;6277685;22;20018;-78
2022/07/13 05:26:13;;;;;;;9.35;3.17;;;;;;;22.11;58.93;101936.88;6253461;22;20015;-78
2022/07/13 05:28:39;;;;;;;5.28;3.08;;;;;;;22.12;59.71;101946.47;6255738;22;20057;-77
2022/07/13 05:31:04;;;;;;;5.68;3.30;;;;;;;22.10;60.75;101941.25;6305322;22;20007;-77
2022/07/13 05:34:03;;;;;;;7.07;3.03;;;;;;;22.17;60.12;101942.97;6306429;22;20011;-77
2022/07/13 05:36:29;;;;;;;4.35;2.90;;;;;;;22.14;61.53;101953.44;6283911;22;20128;-77
2022/07/13 05:38:55;;;;;;;5.18;3.30;;;;;;;22.13;61.57;101953.47;6304520;22;20056;-77
2022/07/13 05:41:20;;;;;;;6.38;2.97;;;;;;;22.15;60.49;101963.06;6254169;22;20013;-78
2022/07/13 05:43:47;;;;;;;5.10;3.10;;;;;;;22.17;60.62;101966.56;6280021;22;20082;-77
2022/07/13 05:46:12;;;;;;;8.82;3.28;;;;;;;22.18;60.34;101960.44;6251585;22;20035;-77
2022/07/13 05:48:37;;;;;;;5.68;3.05;;;;;;;22.15;61.10;101960.47;6229774;22;20018;-77
2022/07/13 05:51:03;;;;;;;4.28;2.72;;;;;;;22.16;61.95;101967.44;6305289;22;20422;-77
2022/07/13 05:53:29;;;;;;;7.00;3.35;;;;;;;22.15;62.22;101975.31;6278588;22;20183;-77
2022/07/13 05:55:54;;;;;;;7.30;2.92;;;;;;;22.18;61.08;101978.78;6306217;22;20053;-77
2022/07/13 05:58:21;;;;;;;8.75;2.88;;;;;;;22.17;61.09;101979.66;6278596;22;19991;-77
2022/07/13 06:00:51;;;;;;;6.18;3.25;;;;;;;22.20;61.34;101970.91;6254321;22;20025;-77
2022/07/13 06:03:16;;;;;;;6.18;3.15;;;;;;;22.18;60.65;101970.03;6277413;22;20007;-77
2022/07/13 06:05:42;;;;;;;5.43;3.33;;;;;;;22.26;61.06;101973.50;6304810;22;20022;-77
2022/07/13 06:08:07;;;;;;;8.38;3.60;;;;;;;22.28;60.40;101971.78;6278039;22;20418;-78
2022/07/13 06:10:35;;;;;;;7.22;3.70;;;;;;;22.30;60.46;101974.38;6279253;22;20012;-77
2022/07/13 06:13:01;;;;;;;4.75;3.22;;;;;;;22.30;60.83;101969.13;6278916;22;20018;-77
2022/07/13 06:15:33;;;;;;;7.03;3.45;;;;;;;22.35;60.58;101976.13;6254321;22;20007;-78
2022/07/13 06:18:01;;;;;;;8.77;3.45;;;;;;;22.38;60.85;101967.34;6280371;22;20014;-78
2022/07/13 06:20:30;;;;;;;8.02;3.45;;;;;;;22.37;60.61;101958.63;6280407;22;20027;-78
2022/07/13 06:23:18;;;;;;;7.95;3.45;;;;;;;22.41;60.88;101964.75;6277507;22;20015;-78
2022/07/13 06:25:46;;;;;;;7.15;3.40;;;;;;;22.47;61.12;101970.84;6280073;22;20007;-77
2022/07/13 06:28:14;;;;;;;9.10;4.18;;;;;;;22.44;61.73;101949.00;6307464;22;20388;-78
2022/07/13 06:30:59;;;;;;;7.95;3.42;;;;;;;22.48;61.05;101958.59;6254047;22;20015;-77
2022/07/13 06:36:35;;;;;;;6.13;3.65;;;;;;;22.53;61.51;101945.47;6270148;22;20022;-78
2022/07/13 06:39:04;;;;;;;6.65;3.63;;;;;;;22.58;61.67;101949.81;6272957;22;20006;-78
2022/07/13 06:41:29;;;;;;;;;;;;;;;22.79;61.24;101961.94;6276412;22;20007;-78
2022/07/13 06:43:55;;;;;;;5.38;3.60;;;;;;;22.77;61.36;101962.84;6273247;22;19907;-78
2022/07/13 06:46:30;;;;;;;6.07;3.78;;;;;;;22.68;62.60;101943.63;6248219;22;20377;-78
2022/07/13 06:48:56;;;;;;;6.93;3.60;;;;;;;;;;6274924;22;20047;-77
2022/07/13 06:51:21;;;;;;;5.95;3.55;;;;;;;22.80;62.39;101945.31;6248918;22;20331;-77
2022/07/13 06:53:46;;;;;;;9.70;3.55;;;;;;;22.93;62.03;101964.53;6275358;22;20054;-77
2022/07/13 06:56:12;;;;;;;7.07;3.72;;;;;;;22.86;61.85;101954.91;6274856;22;20000;-78
2022/07/13 06:58:37;;;;;;;8.35;3.95;;;;;;;22.88;62.11;101959.31;6276713;22;20312;-77
2022/07/13 07:01:04;;;;;;;10.15;3.60;;;;;;;22.97;62.20;101967.13;6272565;22;20073;-77
2022/07/13 07:03:29;;;;;;;5.93;3.53;;;;;;;23.04;62.84;101972.34;6274617;22;20090;-77
2022/07/13 07:05:58;;;;;;;6.70;3.45;;;;;;;23.19;62.48;101970.50;6247809;22;20038;-77
2022/07/13 07:08:23;;;;;;;;;;;;;;;23.31;62.33;101973.94;6275058;22;20007;-78
2022/07/13 07:10:56;;;;;;;8.63;3.45;;;;;;;23.37;61.60;101961.63;6274931;22;19972;-78
2022/07/13 07:13:22;;;;;;;5.68;3.85;;;;;;;23.38;61.64;101963.38;6274370;22;20000;-78
2022/07/13 07:15:51;;;;;;;6.63;4.10;;;;;;;23.40;60.83;101963.34;6274806;22;20011;-78
2022/07/13 07:18:21;;;;;;;6.13;3.55;;;;;;;23.40;61.32;101963.34;6275393;22;20008;-78
2022/07/13 07:20:47;;;;;;;8.45;3.65;;;;;;;23.38;62.14;101962.50;6273260;22;20069;-78
2022/07/13 07:23:13;;;;;;;9.18;3.80;;;;;;;23.40;62.56;101965.97;6247478;22;20026;-78
2022/07/13 07:25:38;;;;;;;7.78;3.63;;;;;;;23.41;61.98;101957.22;6274512;22;20054;-77
2022/07/13 07:28:04;;;;;;;8.32;3.63;;;;;;;23.48;62.15;101951.91;6273370;22;20015;-78
2022/07/13 07:30:30;;;;;;;6.18;3.50;;;;;;;23.52;61.73;101948.38;6275586;22;20008;-77
2022/07/13 07:32:56;;;;;;;7.20;3.50;;;;;;;23.53;61.80;101955.34;6248381;22;20118;-78
2022/07/13 07:35:22;;;;;;;5.60;3.30;;;;;;;23.58;61.92;101962.31;6274788;22;20087;-77
2022/07/13 07:37:47;;;;;;;6.65;3.45;;;;;;;23.59;61.44;101958.81;6274937;22;20015;-78
2022/07/13 07:40:12;;;;;;;7.75;3.85;;;;;;;23.59;60.99;101956.19;6274550;22;20011;-78
2022/07/13 07:42:38;;;;;;;6.05;3.85;;;;;;;23.65;62.04;101949.16;6273782;22;20008;-78
2022/07/13 07:45:05;;;;;;;7.70;3.42;;;;;;;23.71;62.21;101954.34;6274854;22;20646;-78
2022/07/13 07:47:30;;;;;;;7.07;3.28;;;;;;;23.76;61.19;101951.69;6273316;22;20416;-78
2022/07/13 07:49:56;;;;;;;8.13;3.45;;;;;;;23.78;61.06;101961.31;6277222;22;20068;-78
2022/07/13 07:52:23;;;;;;;5.68;3.30;;;;;;;23.81;62.25;101952.53;6276375;22;20080;-78
2022/07/13 07:54:48;;;;;;;6.30;3.30;;;;;;;23.78;62.12;101945.56;6278453;22;20023;-78
2022/07/13 07:57:14;;;;;;;6.80;3.00;;;;;;;23.84;62.54;101955.09;6275591;22;20677;-77
2022/07/13 07:59:41;;;;;;;5.95;3.55;;;;;;;23.85;62.26;101962.13;6276909;22;20083;-77
2022/07/13 08:02:07;;;;;;;5.85;3.38;;;;;;;23.91;62.57;101961.19;6275078;22;20004;-78
2022/07/13 08:04:33;;;;;;;7.80;3.47;;;;;;;23.83;61.99;101950.75;6276161;22;20035;-78
2022/07/13 08:06:59;;;;;;;7.57;3.20;;;;;;;23.90;62.88;101959.44;6278727;22;19995;-79
2022/07/13 08:09:27;;;;;;;10.15;4.22;;;;;;;23.97;62.19;101955.88;6253829;22;20058;-78
2022/07/13 08:11:52;;;;;;;6.93;3.22;;;;;;;23.98;62.42;101969.00;6281891;22;20014;-78
2022/07/13 08:14:18;;;;;;;8.02;3.50;;;;;;;24.03;63.03;101967.19;6279988;22;20399;-78
2022/07/13 08:16:44;;;;;;;5.47;3.33;;;;;;;24.00;63.05;101961.97;6280294;22;20000;-79
2022/07/13 08:19:11;;;;;;;7.70;3.65;;;;;;;24.01;62.01;101958.44;6280966;22;20019;-78
2022/07/13 08:21:39;;;;;;;6.80;3.83;;;;;;;24.03;61.96;101961.06;6283390;22;20427;-78
2022/07/13 08:24:04;;;;;;;6.97;3.55;;;;;;;24.02;61.58;101968.06;6279367;22;20498;-78
2022/07/13 08:26:30;;;;;;;9.43;3.30;;;;;;;24.08;62.00;101975.88;6254429;22;20018;-78
2022/07/13 08:29:02;;;;;;;7.13;3.45;;;;;;;24.10;62.18;101975.88;6281255;22;20399;-78
2022/07/13 08:31:48;;;;;;;7.57;3.50;;;;;;;24.15;62.06;101958.31;6286928;22;20011;-78
2022/07/13 08:39:44;;;;;;;8.15;3.40;;;;;;;24.24;61.72;101965.22;6281203;22;20022;-78
2022/07/13 08:42:12;;;;;;;7.03;3.40;;;;;;;24.25;61.95;101972.22;6281576;22;20007;-79
2022/07/13 08:44:38;;;;;;;6.95;3.17;;;;;;;24.26;60.81;101963.44;6305915;22;20498;-79
2022/07/13 08:47:05;;;;;;;4.25;2.97;;;;;;;24.26;61.35;101968.69;6283670;22;20026;-78
2022/07/13 08:49:31;;;;;;;5.05;2.83;;;;;;;24.25;61.06;101977.47;6258938;22;20007;-79
2022/07/13 08:51:59;;;;;;;4.65;2.88;;;;;;;24.25;61.05;101985.34;6312799;22;20048;-78
2022/07/13 08:54:25;;;;;;;17.73;3.78;;;;;;;24.25;60.60;101969.59;6310024;22;20033;-80
2022/07/13 08:56:51;;;;;;;11.80;3.00;;;;;;;24.28;60.67;101977.44;6284406;22;20418;-78
2022/07/13 08:59:16;;;;;;;10.10;2.72;;;;;;;24.31;60.44;101977.41;6260417;22;20007;-79
2022/07/13 09:01:44;;;;;;;6.68;2.83;;;;;;;24.33;60.62;101971.25;6285877;22;20064;-79
2022/07/13 09:04:12;;;;;;;6.25;2.92;;;;;;;24.34;60.08;101970.41;6313960;22;20003;-78
2022/07/13 09:06:56;;;;;;;8.50;2.80;;;;;;;24.43;60.96;101979.91;6287825;22;20351;-78
2022/07/13 09:09:31;;;;;;;7.13;3.03;;;;;;;24.49;60.87;101978.97;6282769;22;20033;-78
2022/07/13 09:12:09;;;;;;;5.20;2.83;;;;;;;24.53;60.95;101978.94;6309931;22;20029;-79
2022/07/13 09:14:35;;;;;;;4.43;3.15;;;;;;;24.59;60.76;101985.88;6285164;22;20446;-78
2022/07/13 09:17:01;;;;;;;4.30;2.90;;;;;;;24.67;60.89;101984.00;6283098;22;20003;-76
2022/07/13 09:19:39;;;;;;;7.28;3.72;;;;;;;24.70;60.12;101977.84;6258083;22;19999;-77
2022/07/13 09:22:15;;;;;;;4.70;3.63;;;;;;;24.72;60.05;101973.44;6258957;22;20083;-76
2022/07/13 09:24:53;;;;;;;8.37;3.40;;;;;;;24.74;60.71;101971.66;6312136;22;20003;-78
2022/07/13 09:27:19;;;;;;;8.48;3.38;;;;;;;24.75;60.56;101979.50;6284393;22;20037;-79
2022/07/13 09:29:48;;;;;;;5.72;3.45;;;;;;;24.84;61.47;101982.03;6285805;22;20327;-80
2022/07/13 09:32:14;;;;;;;6.80;3.22;;;;;;;24.90;62.79;101988.97;6236653;22;20014;-79
2022/07/13 09:34:46;;;;;;;12.57;3.40;;;;;;;24.94;61.21;101988.06;6286010;22;20458;-79
2022/07/13 09:37:13;;;;;;;7.25;3.10;;;;;;;25.00;58.82;101998.50;6315004;22;20011;-79
2022/07/13 09:40:06;;;;;;;8.80;3.13;;;;;;;25.01;58.79;101987.06;6312429;22;20014;-78
2022/07/13 09:42:43;;;;;;;4.57;2.90;;;;;;;25.01;58.97;101992.34;6312639;22;20004;-78
2022/07/13 09:48:00;;;;;;;4.95;2.70;;;;;;;25.05;57.33;101986.16;6312119;22;20022;-77
2022/07/13 09:50:39;;;;;;;5.93;2.70;;;;;;;25.08;58.41;101996.66;6288439;22;20087;-79
2022/07/13 09:53:25;;;;;;;4.50;2.72;;;;;;;25.09;57.73;102006.28;6285165;22;20129;-78
2022/07/13 09:55:52;;;;;;;5.80;2.70;;;;;;;25.04;57.58;101994.91;6312331;22;20315;-78
2022/07/13 09:58:37;;;;;;;5.82;2.70;;;;;;;25.04;57.53;101986.16;6311676;22;19999;-78
2022/07/13 10:01:03;;;;;;;6.40;2.55;;;;;;;25.09;58.12;101992.25;6284271;22;20003;-79
2022/07/13 10:03:30;;;;;;;4.35;2.58;;;;;;;25.13;57.90;102000.09;6310382;22;20007;-77
2022/07/13 10:05:56;;;;;;;3.83;2.60;;;;;;;25.20;57.42;101998.22;6311916;22;20011;-78
2022/07/13 10:08:25;;;;;;;6.82;2.63;;;;;;;25.31;57.63;101998.06;6282455;22;20034;-78
2022/07/13 10:10:52;;;;;;;4.78;2.85;;;;;;;25.29;57.75;101986.69;6311130;22;20063;-77
2022/07/13 10:13:18;;;;;;;7.22;3.10;;;;;;;25.35;58.61;101997.97;6282262;22;20004;-76
2022/07/13 10:15:46;;;;;;;4.50;2.80;;;;;;;25.47;58.21;101999.56;6312395;22;20668;-78
2022/07/13 10:18:19;;;;;;;7.63;3.00;;;;;;;25.50;56.69;101994.25;6312232;22;20023;-78
2022/07/13 10:20:50;;;;;;;5.22;2.50;;;;;;;25.45;54.38;101988.19;6285464;22;20461;-79
2022/07/13 10:23:37;;;;;;;5.70;2.72;;;;;;;25.53;56.53;101996.81;6260013;22;20012;-79
2022/07/13 10:26:02;;;;;;;6.25;2.38;;;;;;;25.54;56.07;101985.44;6284049;22;20010;-78
2022/07/13 10:28:28;;;;;;;5.00;2.35;;;;;;;25.57;54.18;101993.25;6285293;22;20026;-78
2022/07/13 10:30:54;;;;;;;5.47;2.38;;;;;;;25.57;54.25;101998.53;6287155;22;19991;-78
2022/07/13 10:33:27;;;;;;;4.30;2.22;;;;;;;25.61;53.87;102004.63;6311033;22;20524;-75
2022/07/13 10:35:57;;;;;;;3.13;2.00;;;;;;;25.60;53.36;102005.50;6311654;22;20453;-78
2022/07/13 10:38:27;;;;;;;5.38;2.00;;;;;;;25.72;53.71;102012.31;6285095;22;20121;-79
2022/07/13 10:41:23;;;;;;;3.55;1.80;;;;;;;25.78;54.31;102005.22;6317003;22;20011;-78
2022/07/13 10:44:23;;;;;;;5.40;2.20;;;;;;;25.85;54.82;102009.50;6310661;22;20004;-78
2022/07/13 10:46:49;;;;;;;6.90;2.60;;;;;;;25.89;54.13;102002.41;6312360;22;19999;-78
2022/07/13 10:49:30;;;;;;;5.68;2.25;;;;;;;25.92;54.46;102007.63;6309549;22;20430;-78
2022/07/13 10:51:57;;;;;;;3.20;2.05;;;;;;;25.88;53.90;102009.44;6305562;22;20078;-77
2022/07/13 10:54:26;;;;;;;5.28;1.92;;;;;;;25.93;52.91;102007.59;6303642;22;20003;-76
2022/07/13 10:57:14;;;;;;;5.70;2.03;;;;;;;25.95;52.78;102010.19;6306066;22;20030;-78
2022/07/13 10:59:47;;;;;;;;;;;;;;;26.00;52.53;102018.03;6306054;22;20003;-77
2022/07/13 11:02:47;;;;;;;4.40;2.17;;;;;;;26.04;51.76;102010.06;6303529;22;19907;-78
2022/07/13 11:05:14;;;;;;;4.97;1.75;;;;;;;26.10;50.98;102009.94;6306037;22;19999;-77
2022/07/13 11:07:41;;;;;;;5.90;2.00;;;;;;;26.18;51.13;102013.28;6306489;22;20078;-78
2022/07/13 11:10:19;;;;;;;2.22;1.60;;;;;;;26.23;51.41;102020.25;6302202;22;20007;-77
2022/07/13 11:13:10;;;;;;;3.78;1.73;;;;;;;26.26;51.54;102015.78;6305082;22;20007;-77
2022/07/13 11:15:47;;;;;;;4.18;1.70;;;;;;;26.33;50.40;102017.44;6302326;22;20018;-78
2022/07/13 11:18:21;;;;;;;2.95;1.88;;;;;;;26.36;50.97;102022.63;6303971;22;20061;-78
2022/07/13 11:20:59;;;;;;;6.70;2.10;;;;;;;26.39;50.98;102026.97;6306244;22;20007;-77
2022/07/13 11:26:18;;;;;;;3.40;1.70;;;;;;;26.43;48.55;102028.69;6281035;22;20017;-78
2022/07/13 11:29:18;;;;;;;4.60;1.60;;;;;;;26.44;48.71;102023.38;6305055;22;20007;-77
2022/07/13 11:31:46;;;;;;;5.13;1.73;;;;;;;26.46;47.88;102024.22;6304696;22;19999;-77
2022/07/13 11:34:12;;;;;;;4.22;2.10;;;;;;;26.51;47.92;102021.47;6302834;22;20030;-78
2022/07/13 11:36:43;;;;;;;6.57;1.85;;;;;;;26.58;47.64;102024.88;6279321;22;20019;-79
2022/07/13 11:39:26;;;;;;;3.83;1.70;;;;;;;26.60;48.17;102020.44;6276035;22;20010;-78
2022/07/13 11:41:53;;;;;;;4.05;1.90;;;;;;;26.59;47.30;102011.66;6278510;22;20014;-78
2022/07/13 11:44:26;;;;;;;6.45;1.73;;;;;;;26.60;47.43;102021.31;6304550;22;20029;-77